Aviation Digital Data Service (ADDS)

Output produced by METARs form (2355 UTC 30 September 2014)
found at http://www.aviationweather.gov/adds/metars/
 
KBFD 302253Z AUTO 34006KT 10SM FEW085 16/12 A2994 RMK AO2 LTG DSNT E AND SE SLP137 T01610117
KBFD 302153Z AUTO 29006KT 10SM BKN065 18/12 A2992 RMK AO2 LTG DSNT N AND NE RAE2055 SLP130 P0000 T01780122
KBFD 302053Z AUTO 33007KT 10SM -RA FEW032 BKN080 BKN095 19/12 A2991 RMK AO2 LTG DSNT N AND E RAB23 SLP122 P0000 60000 T01890122 56003
KBFD 302033Z AUTO 28005KT 9SM VCTS -RA FEW050 BKN075 OVC095 19/12 A2991 RMK AO2 LTG DSNT N-SE RAB23 P0000 T01890122
KBFD 301953Z AUTO 28004KT 10SM OVC060 19/12 A2991 RMK AO2 LTG DSNT SE AND S SLP122 T01940117
KBFD 301853Z AUTO 29005KT 10SM CLR 21/11 A2990 RMK AO2 LTG DSNT S SLP121 T02060111
KBFD 301753Z AUTO 29004KT 10SM FEW036 SCT065 21/11 A2991 RMK AO2 SLP123 T02110111 10211 20078 58007
KBFD 301653Z AUTO 32007KT 10SM FEW040 BKN047 20/11 A2993 RMK AO2 SLP128 T02000106
KBFD 301553Z AUTO 29008KT 10SM SCT033 20/11 A2993 RMK AO2 SLP130 T02000111
KBFD 301453Z AUTO 00000KT 10SM CLR 19/12 A2994 RMK AO2 SLP131 T01890117 51000
KBFD 301353Z AUTO 00000KT 10SM CLR 16/13 A2993 RMK AO2 SLP130 T01610133
KBFD 301319Z AUTO 12003KT 3SM BR CLR 13/12 A2994 RMK AO2 T01280122
KBFD 301306Z AUTO 00000KT 1 1/4SM BR FEW002 12/11 A2994 RMK AO2 T01170111
KBFD 301253Z AUTO 00000KT 1/2SM FG VV001 11/10 A2994 RMK AO2 SLP137 T01060100
KBFD 301207Z AUTO 00000KT 1/4SM FG VV001 08/07 A2994 RMK AO2 T00780072
KBFD 301153Z AUTO 00000KT 1/2SM FG VV001 08/07 A2994 RMK AO2 SLP134 T00780072 10083 20067 53006
KBFD 301053Z AUTO 00000KT 1/4SM FG VV001 07/07 A2993 RMK AO2 SLP131 T00720067
KBFD 301015Z AUTO 00000KT 1/4SM FG VV001 07/07 A2992 RMK AO2 T00720067
KBFD 300953Z AUTO 00000KT 1/2SM FG VV001 08/07 A2992 RMK AO2 SLP125 T00780067
KBFD 300853Z AUTO 00000KT 1/4SM FG VV001 07/06 A2992 RMK AO2 SLP124 T00720061 55005
KBFD 300819Z AUTO 00000KT 1/4SM FG VV001 08/07 A2991 RMK AO2 T00780072
KBFD 300753Z AUTO 00000KT 1/2SM FG VV001 08/07 A2991 RMK AO2 SLP122 T00830072
KBFD 300731Z AUTO 00000KT 1/4SM FG VV001 08/07 A2992 RMK AO2 T00780067
KBFD 300706Z AUTO 00000KT 1/2SM FG VV001 07/07 A2992 RMK AO2 T00720067
KBFD 300653Z AUTO 00000KT 1/4SM FG VV001 07/07 A2993 RMK AO2 SLP127 T00720067
KBFD 300633Z AUTO 00000KT 1/4SM FG VV001 07/07 A2993 RMK AO2 T00720067
KBFD 300553Z AUTO 11003KT 1/2SM FG VV001 08/07 A2993 RMK AO2 SLP129 T00780067 10167 20078 58004
KBFD 300533Z AUTO 00000KT 1/4SM FG VV001 08/08 A2993 RMK AO2 T00830078
KBFD 300526Z AUTO 00000KT 1/2SM FG VV001 08/07 A2993 RMK AO2 T00780072
KBFD 300518Z AUTO 13003KT 1SM BR VV002 08/07 A2993 RMK AO2 VIS 1/2V4 T00830072
KBFD 300506Z AUTO 12003KT 3/4SM BR VV002 08/07 A2993 RMK AO2 T00830072
KBFD 300500Z AUTO 00000KT 1 3/4SM BR SCT002 09/08 A2993 RMK AO2 VIS 3/4V3 T00890078
KBFD 300453Z AUTO 00000KT 4SM BR SCT002 09/08 A2993 RMK AO2 SLP130 T00940083 402330083
KBFD 300447Z AUTO 00000KT 2SM BR BKN002 09/08 A2994 RMK AO2
KBFD 300438Z AUTO 00000KT 3/4SM BR VV002 09/08 A2994 RMK AO2 T00940083
KBFD 300434Z AUTO 00000KT 1 3/4SM BR FEW003 09/08 A2994 RMK AO2 VIS 3/4V5 T00890083
KBFD 300432Z AUTO 00000KT 3SM BR FEW003 09/08 A2994 RMK AO2 T00890078
KBFD 300426Z AUTO 00000KT 2SM BR CLR 09/08 A2994 RMK AO2 T00940083
KBFD 300411Z AUTO 00000KT 1/2SM FG CLR 09/08 A2994 RMK AO2 T00940083
KBFD 300400Z AUTO 00000KT 1 3/4SM BR CLR 09/08 A2994 RMK AO2 T00940083
KBFD 300353Z AUTO 00000KT 5SM BR CLR 09/08 A2994 RMK AO2 SLP133 T00940083
KBFD 300351Z AUTO 14003KT 5SM BR CLR 09/08 A2994 RMK AO2
KBFD 300343Z AUTO 00000KT 2 1/2SM BR CLR 09/08 A2994 RMK AO2 T00940083
KBFD 300317Z AUTO 00000KT 1 3/4SM BR CLR 10/09 A2995 RMK AO2 T01000089
KBFD 300253Z AUTO 00000KT 5SM BR CLR 10/09 A2996 RMK AO2 SLP138 T01000094 58000
KBFD 300222Z AUTO 00000KT 3SM BR CLR 11/10 A2996 RMK AO2 T01060100
KBFD 300210Z AUTO 13003KT 1 3/4SM BR CLR 11/10 A2996 RMK AO2 T01110100
KBFD 300153Z AUTO 00000KT 7SM CLR 12/11 A2996 RMK AO2 SLP139 T01220111
KBFD 300053Z AUTO 00000KT 10SM CLR 13/11 A2996 RMK AO2 SLP140 T01330111
KBFD 292353Z AUTO 00000KT 10SM CLR 17/11 A2996 RMK AO2 SLP142 T01670111 10233 20161 53000
KBFD 292253Z AUTO 00000KT 10SM CLR 18/11 A2995 RMK AO2 SLP137 T01830106
KBFD 292153Z AUTO 30004KT 10SM CLR 22/10 A2996 RMK AO2 SLP136 T02170100
KBFD 292053Z AUTO 27004KT 10SM FEW050 22/09 A2996 RMK AO2 SLP136 T02220094 56010
KBFD 291953Z AUTO 30009KT 10SM FEW049 23/10 A2996 RMK AO2 SLP137 T02280100
KBFD 291853Z AUTO 00000KT 10SM SCT044 22/11 A2997 RMK AO2 SLP141 T02170111
KBFD 291753Z AUTO 10SM FEW041 22/11 A2999 RMK AO2 SLP147 T02220106 10222 20089 58015
KBFD 291653Z AUTO 10SM FEW037 21/11 A3001 RMK AO2 SLP154 T02110106
KBFD 291553Z AUTO VRB04KT 10SM SCT035 21/11 A3002 RMK AO2 SLP158 T02110111
KBFD 291453Z AUTO VRB04KT 10SM CLR 21/12 A3004 RMK AO2 SLP162 T02060122 56005
KBFD 291353Z AUTO 27003KT 10SM CLR 19/14 A3004 RMK AO2 SLP164 T01890139
KBFD 291253Z AUTO 00000KT 10SM CLR 16/13 A3005 RMK AO2 SLP168 T01560133